Pagrindinis puslapis
METAR-TAF:

METAR-TAF

Oro uostai :

Konakris, Gvinėja

platuma: 09-34N, ilguma: 013-37W, Aukštis: 26 m

Dabartinis oras

Ataskaita buvo paskelbta 53 minutes, ne 10:00 UTC
Vėjas 2 kt nuo kintamojo kryptimis
Temperatūra 30°C
Drėgmė 75%
Slėgis 1012 hPa
Matomumas: 5000 m
Mažai debesys ne aukštis 1500 ft
migla

METAR: GUCY 091000Z VRB02KT 5000 HZ FEW015 30/25 Q1012 NOSIG

Laikas: 10:53 (10:53 UTC)

Prognozė

Ataskaita buvo paskelbta 5 valandos ir 53 minutes, ne 05:00 UTC
Prognozė galioja nuo 09 metu 09 UTC su 10 metu 12 UTC
Vėjas 6 kt iš Rytų/Šiaurės Rytų
Matomumas: 5000 m
Mažai debesys ne aukštis 1500 ft
migla
Laikinai
nuo 09 metu 06 UTC su 09 metu 09 UTC
Vėjas 2 kt nuo kintamojo kryptimis
Matomumas: 4000 m
Išsisklaidę debesys ne aukštis 1500 ft
rūkana

TAF: GUCY 090500Z 0909/1012 07006KT 5000 HZ FEW015 TEMPO 0906/0909 VRB02KT 4000 BR SCT015

Orai ataskaitas ir orų prognozės (METAR, TAF).

turimą stotys yra geltonos ir raudonos taškus žemėlapyje.

Perkelti pele per norėdami pamatyti stoties vardą.

Tada spustelėkite, norėdami matyti oro stebėjimo ir prognozės.

Norėdami pakeisti žemėlapį: spustelėkite ant žalios mygtukų su juodo kryžiaus žemyn,; žalią mygtuką su brūkšneliu, jei norite nutolinti; arba žalių rodyklių gretimoms žemėlapius.


METAR-TAF: